Time;durP1;ratioP1;P1;durP2;ratioP2;P2;SDS_P1;SDS_P2;PMS_P1;PMS_P2;Temp;Humidity;BMP_temperature;BMP_pressure;BME280_temperature;BME280_humidity;BME280_pressure;Samples;Min_cycle;Max_cycle;Signal;HPM_P1;HPM_P2
2021/04/15 04:00:35;;;;;;;9.50;7.87;;;1.30;99.90;;;;;;5944374;23;20434;-66
2021/04/15 04:03:06;;;;;;;10.73;8.20;;;1.30;99.90;;;;;;4997491;28;20458;-67
2021/04/15 04:05:36;;;;;;;10.47;9.47;;;1.30;99.90;;;;;;4996820;28;20442;-66
2021/04/15 04:08:06;;;;;;;8.20;7.40;;;1.30;99.90;;;;;;4997261;28;20446;-68
2021/04/15 04:10:37;;;;;;;10.07;7.87;;;1.30;99.90;;;;;;4997169;28;20485;-67
2021/04/15 04:13:21;;;;;;;9.03;7.60;;;1.30;99.90;;;;;;4997561;28;20434;-67
2021/04/15 04:15:52;;;;;;;8.23;7.30;;;1.20;99.90;;;;;;4997020;28;20438;-67
2021/04/15 04:18:24;;;;;;;10.40;7.80;;;1.20;99.90;;;;;;4996889;28;20488;-66
2021/04/15 04:20:55;;;;;;;10.50;9.57;;;1.20;99.90;;;;;;4996502;28;20469;-66
2021/04/15 04:23:35;;;;;;;9.20;8.30;;;1.10;99.90;;;;;;4996612;28;20442;-66
2021/04/15 04:26:09;;;;;;;17.03;8.07;;;1.10;99.90;;;;;;4996115;28;20438;-68
2021/04/15 04:28:40;;;;;;;7.83;7.03;;;1.10;99.90;;;;;;4996223;28;20437;-68
2021/04/15 04:31:11;;;;;;;7.83;7.13;;;1.20;99.90;;;;;;4996099;28;20473;-66
2021/04/15 04:33:42;;;;;;;13.13;7.87;;;1.20;99.90;;;;;;4995917;28;20452;-67
2021/04/15 04:36:10;;;;;;;13.57;8.30;;;1.30;99.90;;;;;;4995856;28;20446;-66
2021/04/15 04:38:37;;;;;;;10.53;7.53;;;1.30;99.90;;;;;;4995428;28;21024;-67
2021/04/15 04:41:10;;;;;;;11.63;8.70;;;1.30;99.90;;;;;;4995821;28;20482;-67
2021/04/15 04:43:42;;;;;;;9.50;7.73;;;1.30;99.90;;;;;;4995968;28;20449;-67
2021/04/15 04:46:16;;;;;;;8.00;7.30;;;1.30;99.90;;;;;;4995535;28;20510;-67
2021/04/15 04:48:50;;;;;;;9.60;8.47;;;1.20;99.90;;;;;;4995874;28;20493;-66
2021/04/15 04:51:18;;;;;;;13.37;9.07;;;1.30;99.90;;;;;;4996243;28;20888;-65
2021/04/15 04:53:48;;;;;;;9.13;7.70;;;1.40;99.90;;;;;;4995810;28;20972;-67
2021/04/15 04:56:27;;;;;;;10.20;7.80;;;1.50;99.90;;;;;;4995223;28;20454;-66
2021/04/15 04:58:55;;;;;;;9.20;7.73;;;1.40;99.90;;;;;;4995167;28;20465;-66
2021/04/15 05:01:23;;;;;;;14.33;7.40;;;1.50;99.90;;;;;;4994936;28;20489;-66
2021/04/15 05:03:49;;;;;;;8.90;7.80;;;1.60;99.90;;;;;;4995192;28;20457;-67
2021/04/15 05:06:24;;;;;;;10.73;8.20;;;1.60;99.90;;;;;;4994504;28;20454;-66
2021/04/15 05:08:58;;;;;;;8.53;7.73;;;1.60;99.90;;;;;;4995522;28;20449;-66
2021/04/15 05:11:29;;;;;;;10.70;8.63;;;1.60;99.90;;;;;;4996119;28;20484;-66
2021/04/15 05:13:55;;;;;;;9.67;8.67;;;1.60;99.90;;;;;;4994677;28;20492;-66
2021/04/15 05:16:24;;;;;;;10.13;9.00;;;1.60;99.90;;;;;;4994714;28;20453;-66
2021/04/15 05:18:51;;;;;;;13.93;10.10;;;1.60;99.90;;;;;;4994604;28;20478;-67
2021/04/15 05:21:23;;;;;;;10.73;9.73;;;1.60;99.90;;;;;;4994758;28;20509;-67
2021/04/15 05:23:56;;;;;;;10.97;9.80;;;1.70;99.90;;;;;;4995444;28;20528;-65
2021/04/15 05:26:24;;;;;;;10.20;9.30;;;1.70;99.90;;;;;;4994767;28;20461;-66
2021/04/15 05:28:55;;;;;;;9.73;8.83;;;1.70;99.90;;;;;;4994170;28;20837;-67
2021/04/15 05:31:26;;;;;;;10.00;9.10;;;1.60;99.90;;;;;;4994450;28;20474;-66
2021/04/15 05:33:53;;;;;;;13.33;9.37;;;1.60;99.90;;;;;;4994422;28;20461;-66
2021/04/15 05:36:23;;;;;;;9.77;8.80;;;1.60;99.90;;;;;;4993977;28;20454;-67
2021/04/15 05:38:52;;;;;;;10.10;9.10;;;1.70;99.90;;;;;;4994438;28;20588;-67
2021/04/15 05:41:22;;;;;;;8.83;7.80;;;1.70;99.90;;;;;;4994616;28;20470;-67
2021/04/15 05:43:51;;;;;;;9.27;8.30;;;1.70;99.90;;;;;;4994462;28;20442;-67
2021/04/15 05:46:20;;;;;;;8.20;7.30;;;1.80;99.90;;;;;;4994348;28;20457;-67
2021/04/15 05:48:49;;;;;;;7.60;7.00;;;1.90;99.90;;;;;;4994303;28;20459;-66
2021/04/15 05:51:21;;;;;;;8.80;7.50;;;2.00;99.90;;;;;;4994022;28;20484;-67
2021/04/15 05:53:51;;;;;;;8.37;6.60;;;2.30;99.90;;;;;;4993620;28;20920;-66
2021/04/15 05:56:21;;;;;;;7.47;6.87;;;2.50;99.90;;;;;;4994249;28;20434;-67
2021/04/15 05:58:58;;;;;;;10.90;9.13;;;2.80;99.90;;;;;;4994361;28;20488;-68
2021/04/15 06:01:31;;;;;;;13.17;8.57;;;3.30;99.90;;;;;;4994102;28;20482;-67
2021/04/15 06:04:05;;;;;;;10.63;9.13;;;3.70;99.90;;;;;;4994399;28;20442;-68
2021/04/15 06:06:34;;;;;;;9.90;8.20;;;4.20;99.90;;;;;;4996076;28;20434;-66
2021/04/15 06:09:01;;;;;;;8.80;7.97;;;4.80;99.90;;;;;;4996140;28;20593;-67
2021/04/15 06:11:51;;;;;;;8.50;7.70;;;5.50;99.90;;;;;;4993990;28;20477;-68
2021/04/15 06:14:24;;;;;;;12.60;8.63;;;6.20;99.90;;;;;;4994093;28;20438;-69
2021/04/15 06:17:05;;;;;;;12.17;8.37;;;6.60;99.90;;;;;;4994203;28;20465;-68
2021/04/15 06:19:33;;;;;;;9.03;8.20;;;7.20;99.90;;;;;;4994525;28;20528;-67
2021/04/15 06:22:10;;;;;;;8.90;8.10;;;7.90;99.90;;;;;;4993838;28;20481;-68
2021/04/15 06:24:37;;;;;;;9.07;8.27;;;8.00;99.90;;;;;;4994088;28;20508;-67
2021/04/15 06:27:06;;;;;;;8.63;7.70;;;8.10;99.90;;;;;;4994016;28;20465;-67
2021/04/15 06:29:41;;;;;;;11.90;7.97;;;8.40;99.90;;;;;;4994040;28;20461;-68
2021/04/15 06:32:12;;;;;;;8.17;7.43;;;8.80;99.90;;;;;;4993628;28;20848;-68
2021/04/15 06:34:39;;;;;;;8.00;7.33;;;8.70;99.90;;;;;;4993915;28;20488;-69
2021/04/15 06:37:13;;;;;;;12.50;8.60;;;9.20;99.90;;;;;;4993690;28;20952;-67
2021/04/15 06:39:46;;;;;;;8.57;7.70;;;9.90;99.90;;;;;;4993930;28;20469;-69
2021/04/15 06:42:49;;;;;;;8.77;7.87;;;10.30;99.90;;;;;;4998049;28;20477;-68
2021/04/15 06:45:30;;;;;;;8.83;8.03;;;10.10;99.90;;;;;;4997679;28;20433;-69
2021/04/15 06:48:25;;;;;;;7.93;7.07;;;10.00;98.80;;;;;;4997423;28;20434;-68
2021/04/15 06:51:18;;;;;;;7.23;6.60;;;9.50;99.90;;;;;;4997061;28;21054;-68
2021/04/15 06:53:58;;;;;;;12.10;6.90;;;8.80;99.90;;;;;;4997401;28;20454;-69
2021/04/15 06:56:30;;;;;;;6.57;5.97;;;9.80;99.90;;;;;;4997258;28;20488;-69
2021/04/15 06:59:09;;;;;;;9.20;5.90;;;10.20;98.30;;;;;;4996938;28;20465;-69
2021/04/15 07:01:48;;;;;;;11.90;6.37;;;10.20;96.10;;;;;;4996840;28;20481;-68
2021/04/15 07:04:18;;;;;;;7.90;6.20;;;9.50;96.50;;;;;;4996903;28;20441;-67
2021/04/15 07:07:03;;;;;;;5.63;5.13;;;9.30;97.90;;;;;;4997176;28;20438;-69
2021/04/15 07:10:06;;;;;;;8.10;5.40;;;9.70;97.20;;;;;;4997192;28;20437;-68
2021/04/15 07:13:18;;;;;;;8.30;5.30;;;9.70;96.50;;;;;;4996946;28;21007;-68
2021/04/15 07:15:55;;;;;;;7.10;5.20;;;10.50;95.30;;;;;;4997165;28;20441;-68
2021/04/15 07:18:51;;;;;;;6.37;5.60;;;10.80;93.90;;;;;;4996723;28;20979;-68
2021/04/15 07:21:53;;;;;;;5.67;5.17;;;10.40;94.30;;;;;;4997048;28;20477;-68
2021/04/15 07:24:30;;;;;;;5.67;5.13;;;11.00;91.80;;;;;;4996552;28;20438;-69
2021/04/15 07:27:34;;;;;;;6.87;5.40;;;11.10;90.70;;;;;;4997135;28;20500;-68
2021/04/15 07:30:29;;;;;;;6.10;4.73;;;11.20;90.80;;;;;;4997049;28;20449;-68
2021/04/15 07:33:11;;;;;;;4.57;3.87;;;11.30;89.50;;;;;;4998242;28;20437;-67
2021/04/15 07:35:47;;;;;;;5.23;4.83;;;11.70;82.50;;;;;;5003160;28;20893;-68
2021/04/15 07:38:39;;;;;;;6.00;4.73;;;11.60;85.80;;;;;;5000144;28;20489;-67
2021/04/15 07:41:17;;;;;;;6.20;4.97;;;11.30;87.20;;;;;;4999546;28;20473;-68
2021/04/15 07:44:16;;;;;;;11.53;4.90;;;12.20;85.00;;;;;;4997068;28;20437;-68
2021/04/15 07:46:51;;;;;;;6.33;5.13;;;12.60;85.00;;;;;;4972299;28;20450;-68
2021/04/15 07:49:45;;;;;;;8.77;5.00;;;13.20;80.90;;;;;;4997971;28;20443;-66
2021/04/15 07:52:59;;;;;;;8.83;5.03;;;13.60;79.60;;;;;;4997180;28;20481;-67
2021/04/15 07:55:52;;;;;;;9.10;4.80;;;14.40;73.00;;;;;;4936300;29;20492;-68
2021/04/15 07:58:41;;;;;;;9.23;4.90;;;15.20;70.20;;;;;;4936479;29;20461;-68
2021/04/15 08:01:28;;;;;;;8.40;4.80;;;14.00;72.80;;;;;;4982693;28;20844;-68
2021/04/15 08:04:19;;;;;;;6.53;5.47;;;14.40;75.30;;;;;;4996427;28;20445;-67
2021/04/15 08:06:59;;;;;;;5.40;4.90;;;14.50;74.40;;;;;;4996571;28;20497;-66
2021/04/15 08:09:55;;;;;;;6.00;5.50;;;15.50;70.20;;;;;;4996815;28;20441;-66
2021/04/15 08:12:36;;;;;;;7.20;5.00;;;14.90;71.50;;;;;;4995311;28;20481;-67
2021/04/15 08:15:22;;;;;;;6.47;5.50;;;15.60;71.30;;;;;;4996518;28;20438;-67
2021/04/15 08:18:04;;;;;;;5.97;5.47;;;15.70;72.80;;;;;;4996390;28;20433;-67
2021/04/15 08:20:46;;;;;;;7.20;6.17;;;16.10;71.20;;;;;;4996102;28;20472;-65
2021/04/15 08:23:30;;;;;;;7.90;5.57;;;15.80;70.90;;;;;;4997864;28;20468;-67
2021/04/15 08:26:19;;;;;;;7.43;5.80;;;15.90;71.90;;;;;;4996488;28;20450;-66
2021/04/15 08:29:00;;;;;;;5.90;5.40;;;16.20;67.80;;;;;;4994005;28;20925;-67
2021/04/15 08:31:46;;;;;;;5.77;5.37;;;16.50;64.50;;;;;;4996463;28;20632;-67
2021/04/15 08:34:24;;;;;;;6.80;5.50;;;16.70;63.20;;;;;;4995599;28;20947;-67
2021/04/15 08:37:10;;;;;;;6.70;6.10;;;17.40;60.80;;;;;;4995817;28;20445;-68
2021/04/15 08:39:52;;;;;;;5.80;5.27;;;17.30;60.90;;;;;;4996400;28;20489;-68
2021/04/15 08:42:30;;;;;;;9.10;6.03;;;17.80;60.90;;;;;;5000241;28;20485;-68
2021/04/15 08:45:30;;;;;;;6.43;5.90;;;17.80;57.40;;;;;;4996466;28;20445;-68
2021/04/15 08:48:10;;;;;;;5.80;5.30;;;18.20;59.60;;;;;;4995517;28;20442;-67
2021/04/15 08:50:47;;;;;;;6.97;6.37;;;17.80;60.60;;;;;;4995052;28;20933;-68
2021/04/15 08:53:28;;;;;;;6.60;5.83;;;17.60;60.20;;;;;;4995358;28;20442;-68
2021/04/15 08:55:59;;;;;;;8.87;7.10;;;16.80;59.60;;;;;;4995520;28;20438;-67
2021/04/15 08:58:53;;;;;;;5.70;5.20;;;17.30;61.90;;;;;;4994847;28;20913;-67
2021/04/15 09:01:27;;;;;;;5.60;5.10;;;17.70;64.20;;;;;;4994888;28;20481;-67
2021/04/15 09:04:03;;;;;;;7.10;5.40;;;17.50;58.70;;;;;;4994773;28;20444;-67
2021/04/15 09:06:39;;;;;;;5.10;4.70;;;17.40;58.60;;;;;;4995452;28;20437;-67
2021/04/15 09:09:26;;;;;;;6.47;5.87;;;17.60;59.10;;;;;;4995012;28;20433;-67
2021/04/15 09:12:16;;;;;;;7.10;5.70;;;18.20;59.90;;;;;;4995424;28;20611;-68
2021/04/15 09:15:05;;;;;;;6.60;5.53;;;16.90;58.20;;;;;;4995261;28;20438;-68
2021/04/15 09:17:34;;;;;;;5.53;4.83;;;18.10;58.20;;;;;;4995033;28;20948;-68
2021/04/15 09:20:07;;;;;;;6.73;5.20;;;18.00;57.50;;;;;;4995323;28;20477;-67
2021/04/15 09:23:15;;;;;;;8.37;5.70;;;18.30;57.20;;;;;;4994910;28;20569;-67
2021/04/15 09:25:47;;;;;;;8.73;5.70;;;19.40;56.70;;;;;;4995043;28;20437;-67
2021/04/15 09:28:25;;;;;;;5.90;5.40;;;19.80;54.00;;;;;;4994734;28;20442;-67
2021/04/15 09:30:59;;;;;;;5.93;5.43;;;19.60;54.70;;;;;;4995188;28;20480;-67
2021/04/15 09:33:47;;;;;;;6.13;5.37;;;18.80;56.20;;;;;;4994941;28;20433;-67
2021/04/15 09:36:23;;;;;;;6.67;5.30;;;18.40;53.50;;;;;;4995012;28;20438;-67
2021/04/15 09:39:03;;;;;;;5.23;4.83;;;17.40;56.00;;;;;;4994733;28;20792;-67
2021/04/15 09:41:46;;;;;;;5.40;4.70;;;16.60;55.50;;;;;;4994732;28;21062;-66
2021/04/15 09:44:30;;;;;;;4.87;4.47;;;15.30;57.40;;;;;;4995134;28;20785;-66
2021/04/15 09:47:03;;;;;;;4.70;4.00;;;14.10;59.20;;;;;;4995139;28;20453;-66
2021/04/15 09:49:44;;;;;;;4.50;4.20;;;12.60;61.30;;;;;;4995091;28;20446;-66
2021/04/15 09:52:25;;;;;;;5.83;5.20;;;11.50;66.30;;;;;;4994558;28;20481;-66
2021/04/15 09:55:02;;;;;;;5.80;5.23;;;11.30;70.50;;;;;;4994614;28;20446;-66
2021/04/15 09:57:37;;;;;;;7.93;5.07;;;10.70;74.20;;;;;;4994828;28;20504;-67
2021/04/15 10:00:12;;;;;;;5.77;5.00;;;10.20;77.90;;;;;;4994583;28;20472;-67
2021/04/15 10:02:49;;;;;;;8.47;6.23;;;9.70;82.10;;;;;;4995445;28;20437;-67
2021/04/15 10:05:23;;;;;;;6.53;5.80;;;9.20;88.90;;;;;;4994390;28;20449;-67
2021/04/15 10:07:54;;;;;;;5.27;4.40;;;10.10;93.20;;;;;;4994124;28;20912;-67
2021/04/15 10:10:28;;;;;;;5.23;4.80;;;11.70;85.20;;;;;;4994149;28;20952;-67
2021/04/15 10:13:01;;;;;;;7.80;5.23;;;12.60;75.50;;;;;;4994595;28;20492;-68
2021/04/15 10:15:41;;;;;;;5.30;4.43;;;13.20;73.00;;;;;;4997119;28;20437;-67
2021/04/15 10:18:17;;;;;;;3.17;2.90;;;13.70;75.50;;;;;;4997935;28;20935;-68
2021/04/15 10:21:08;;;;;;;2.80;2.30;;;13.50;66.10;;;;;;4998301;28;20564;-68
2021/04/15 10:24:01;;;;;;;2.47;2.27;;;12.80;58.70;;;;;;4998280;28;20461;-67
2021/04/15 10:27:07;;;;;;;2.60;2.30;;;12.40;59.70;;;;;;4998643;28;20438;-67
2021/04/15 10:30:05;;;;;;;4.70;2.50;;;11.70;60.10;;;;;;4998269;28;20426;-67
2021/04/15 10:32:51;;;;;;;2.67;2.47;;;11.80;66.80;;;;;;4997858;28;20988;-67
2021/04/15 10:35:58;;;;;;;2.77;2.57;;;12.80;59.90;;;;;;4998697;28;20822;-67
2021/04/15 10:38:53;;;;;;;4.00;3.53;;;13.60;58.30;;;;;;4998026;28;20438;-67
2021/04/15 10:41:51;;;;;;;7.47;3.70;;;14.20;58.90;;;;;;4998175;28;20473;-67
2021/04/15 10:44:43;;;;;;;3.80;3.47;;;14.20;62.70;;;;;;4998130;28;20441;-67
2021/04/15 10:47:26;;;;;;;3.87;3.17;;;13.40;59.60;;;;;;4998597;28;20796;-67
2021/04/15 10:50:02;;;;;;;2.93;2.67;;;13.40;61.20;;;;;;4997905;28;20500;-67
2021/04/15 10:52:45;;;;;;;3.40;3.03;;;12.80;61.20;;;;;;4997586;28;20473;-67
2021/04/15 10:55:24;;;;;;;2.20;2.10;;;12.60;59.20;;;;;;4997665;28;20861;-67
2021/04/15 10:57:52;;;;;;;2.70;2.40;;;12.60;58.70;;;;;;4997751;28;20453;-67
2021/04/15 11:00:28;;;;;;;2.00;1.90;;;12.40;59.60;;;;;;4997270;28;20477;-67
2021/04/15 11:02:57;;;;;;;2.20;2.10;;;12.30;56.80;;;;;;4997361;28;20441;-67
2021/04/15 11:05:29;;;;;;;2.77;2.57;;;12.10;58.40;;;;;;4997555;28;20454;-67
2021/04/15 11:08:06;;;;;;;4.40;3.33;;;11.90;58.60;;;;;;4997355;28;20442;-67
2021/04/15 11:10:33;;;;;;;3.60;3.30;;;11.40;61.00;;;;;;4997220;28;20434;-68
2021/04/15 11:13:11;;;;;;;4.00;3.60;;;11.20;64.10;;;;;;4997098;28;20458;-68
2021/04/15 11:15:42;;;;;;;3.70;3.40;;;11.10;67.40;;;;;;4996919;28;20438;-67
2021/04/15 11:18:10;;;;;;;4.37;3.97;;;11.30;68.90;;;;;;4997348;28;20442;-67
2021/04/15 11:20:41;;;;;;;3.43;3.10;;;11.10;68.80;;;;;;4997281;28;20540;-67
2021/04/15 11:23:10;;;;;;;3.20;2.90;;;11.10;70.50;;;;;;4997556;28;20434;-67
2021/04/15 11:25:40;;;;;;;4.00;3.23;;;11.00;69.00;;;;;;4996855;28;20461;-67
2021/04/15 11:28:31;;;;;;;3.00;2.80;;;10.90;68.90;;;;;;4996655;28;20521;-67
2021/04/15 11:30:59;;;;;;;3.60;3.30;;;11.10;73.20;;;;;;4997227;28;20976;-67
2021/04/15 11:33:39;;;;;;;3.20;3.00;;;11.20;72.20;;;;;;4997331;28;20442;-68
2021/04/15 11:36:11;;;;;;;3.33;3.13;;;11.00;71.60;;;;;;5001153;28;20441;-67
2021/04/15 11:38:37;;;;;;;3.13;2.97;;;10.70;71.10;;;;;;5001658;28;20442;-67
2021/04/15 11:41:14;;;;;;;4.83;2.90;;;10.50;72.30;;;;;;5001784;28;20489;-67
2021/04/15 11:43:41;;;;;;;2.67;2.47;;;10.40;69.10;;;;;;4999687;28;20438;-67
2021/04/15 11:46:17;;;;;;;3.23;3.03;;;10.30;72.60;;;;;;4997112;28;20457;-67
2021/04/15 11:48:44;;;;;;;2.40;2.30;;;10.50;73.90;;;;;;4997555;28;20872;-67
2021/04/15 11:51:16;;;;;;;2.93;2.83;;;10.90;69.10;;;;;;4996742;28;20478;-67
2021/04/15 11:53:47;;;;;;;3.53;2.80;;;11.20;66.90;;;;;;4996589;28;20445;-67
2021/04/15 11:56:31;;;;;;;3.50;3.20;;;11.10;64.40;;;;;;4996267;28;20935;-68
2021/04/15 11:59:16;;;;;;;4.57;3.50;;;11.10;66.50;;;;;;4996898;28;20452;-67
2021/04/15 12:01:43;;;;;;;3.70;3.50;;;10.70;69.10;;;;;;4996254;28;20497;-66
2021/04/15 12:04:14;;;;;;;3.20;3.00;;;11.10;72.30;;;;;;4996558;28;20454;-66
2021/04/15 12:06:44;;;;;;;2.80;2.60;;;11.50;68.90;;;;;;4995939;28;20438;-67
2021/04/15 12:09:16;;;;;;;2.57;2.47;;;11.70;70.00;;;;;;4996432;28;20464;-68
2021/04/15 12:11:50;;;;;;;5.17;3.17;;;11.80;65.10;;;;;;4996191;28;20524;-68
2021/04/15 12:14:17;;;;;;;3.77;3.53;;;11.90;61.80;;;;;;4996376;28;20801;-68
2021/04/15 12:16:52;;;;;;;7.20;3.30;;;11.80;63.90;;;;;;4995950;28;20496;-67
2021/04/15 12:19:23;;;;;;;3.37;3.17;;;12.20;70.20;;;;;;4995902;28;20473;-67
2021/04/15 12:21:55;;;;;;;3.63;3.33;;;12.50;74.00;;;;;;4995930;28;20478;-68
2021/04/15 12:24:28;;;;;;;3.90;3.60;;;13.00;65.60;;;;;;4995972;28;20496;-68
2021/04/15 12:27:00;;;;;;;3.30;3.10;;;12.90;62.80;;;;;;4995811;28;20445;-67
2021/04/15 12:29:32;;;;;;;3.87;3.67;;;13.20;62.60;;;;;;4995435;28;20438;-67
2021/04/15 12:32:19;;;;;;;4.10;3.70;;;13.30;60.60;;;;;;4995631;28;20489;-66
2021/04/15 12:34:57;;;;;;;3.23;3.00;;;13.80;64.50;;;;;;4996116;28;20441;-67
2021/04/15 12:37:28;;;;;;;7.83;3.50;;;14.10;59.80;;;;;;4995550;28;20856;-68
2021/04/15 12:40:14;;;;;;;3.37;3.03;;;14.00;55.80;;;;;;4995614;28;20532;-67
2021/04/15 12:42:43;;;;;;;7.23;3.80;;;14.40;58.30;;;;;;4995235;28;20442;-67
2021/04/15 12:45:15;;;;;;;3.57;3.27;;;14.20;58.20;;;;;;4996112;28;20457;-67
2021/04/15 12:47:43;;;;;;;3.17;2.97;;;13.90;58.70;;;;;;4995688;28;20446;-66
2021/04/15 12:50:11;;;;;;;3.50;3.20;;;13.60;60.20;;;;;;4998000;28;20532;-67
2021/04/15 12:52:37;;;;;;;3.90;3.67;;;13.30;63.30;;;;;;4999038;28;20485;-67
2021/04/15 12:55:07;;;;;;;4.00;3.80;;;12.80;68.00;;;;;;4999183;28;20457;-67
2021/04/15 12:57:34;;;;;;;4.10;3.80;;;12.10;71.70;;;;;;4998339;28;20442;-68
2021/04/15 13:00:06;;;;;;;4.70;4.40;;;11.30;76.30;;;;;;4996183;28;20478;-67
2021/04/15 13:02:34;;;;;;;4.67;4.30;;;10.80;78.90;;;;;;4995776;28;20520;-67
2021/04/15 13:05:02;;;;;;;4.40;4.10;;;9.80;83.20;;;;;;4996212;28;20996;-68
2021/04/15 13:07:33;;;;;;;4.30;3.90;;;9.60;90.80;;;;;;4996724;28;20449;-67
2021/04/15 13:10:28;;;;;;;4.83;4.13;;;9.20;92.30;;;;;;4996639;28;20434;-67
2021/04/15 13:12:56;;;;;;;3.73;3.43;;;8.60;93.10;;;;;;4995729;28;20786;-66
2021/04/15 13:15:43;;;;;;;3.80;3.50;;;8.30;92.00;;;;;;4995528;28;20462;-66
2021/04/15 13:18:33;;;;;;;3.70;3.40;;;8.10;92.30;;;;;;4994534;28;20905;-66
2021/04/15 13:21:25;;;;;;;4.20;3.53;;;8.20;96.60;;;;;;4994554;28;20485;-66
2021/04/15 13:23:52;;;;;;;2.77;2.57;;;8.10;94.50;;;;;;4994961;28;20446;-67
2021/04/15 13:26:32;;;;;;;3.30;3.10;;;7.90;88.30;;;;;;4995108;28;21010;-68
2021/04/15 13:29:09;;;;;;;3.57;3.33;;;7.90;93.20;;;;;;4994866;28;20448;-68
2021/04/15 13:31:41;;;;;;;4.23;3.93;;;8.20;96.20;;;;;;4994744;28;20982;-68
2021/04/15 13:34:11;;;;;;;3.60;3.30;;;8.40;92.00;;;;;;4994800;28;20442;-67
2021/04/15 13:36:39;;;;;;;3.40;3.10;;;8.70;91.60;;;;;;4995007;28;20438;-67
2021/04/15 13:39:10;;;;;;;3.80;3.50;;;8.80;86.50;;;;;;4994574;28;20820;-67
2021/04/15 13:41:43;;;;;;;3.80;3.10;;;9.10;85.10;;;;;;4994796;28;20484;-67
2021/04/15 13:44:12;;;;;;;3.73;2.77;;;9.30;84.70;;;;;;4994834;28;20577;-67
2021/04/15 13:46:41;;;;;;;3.30;3.10;;;9.50;86.20;;;;;;4994978;28;20466;-68
2021/04/15 13:49:37;;;;;;;3.30;3.10;;;9.90;79.10;;;;;;4994345;28;20458;-66
2021/04/15 13:52:11;;;;;;;3.60;3.27;;;10.10;77.30;;;;;;4987831;28;20481;-67
2021/04/15 13:54:38;;;;;;;3.77;3.57;;;10.50;82.70;;;;;;4994674;28;20783;-67
2021/04/15 13:57:12;;;;;;;3.53;3.33;;;10.60;80.00;;;;;;4994442;28;20940;-68
2021/04/15 14:00:02;;;;;;;3.67;3.40;;;10.90;76.90;;;;;;4994614;28;20509;-67
2021/04/15 14:02:51;;;;;;;3.90;3.60;;;10.80;72.60;;;;;;4995681;28;20477;-67
2021/04/15 14:05:43;;;;;;;4.13;3.53;;;10.90;79.50;;;;;;4998257;28;20434;-67
2021/04/15 14:08:31;;;;;;;4.13;3.70;;;11.20;79.60;;;;;;4998834;28;20793;-67
2021/04/15 14:10:57;;;;;;;3.83;3.53;;;11.30;74.10;;;;;;5000570;28;20473;-67
2021/04/15 14:13:24;;;;;;;3.40;3.20;;;11.50;68.30;;;;;;5000351;28;20449;-67
2021/04/15 14:15:54;;;;;;;3.77;3.57;;;11.60;72.00;;;;;;4999420;28;20461;-66
2021/04/15 14:18:26;;;;;;;4.23;3.90;;;12.00;73.70;;;;;;4995160;28;20805;-67
2021/04/15 14:20:56;;;;;;;6.20;3.90;;;11.90;71.20;;;;;;4994739;28;20536;-66
2021/04/15 14:23:28;;;;;;;3.90;3.70;;;12.20;71.70;;;;;;4994506;28;20497;-67
2021/04/15 14:26:03;;;;;;;4.10;3.80;;;12.20;68.80;;;;;;4994386;28;20442;-66
2021/04/15 14:28:31;;;;;;;4.17;3.87;;;11.80;70.10;;;;;;4994792;28;20438;-66
2021/04/15 14:31:12;;;;;;;7.23;4.00;;;11.40;70.80;;;;;;4993798;28;20565;-66
2021/04/15 14:33:38;;;;;;;3.43;3.23;;;11.10;71.20;;;;;;4994497;28;20445;-67
2021/04/15 14:36:06;;;;;;;3.90;3.70;;;10.90;72.60;;;;;;4994147;28;20462;-66
2021/04/15 14:38:35;;;;;;;4.10;3.90;;;10.40;74.90;;;;;;4994208;28;20462;-67
2021/04/15 14:41:03;;;;;;;4.53;4.13;;;10.20;78.20;;;;;;4994232;28;20508;-66
2021/04/15 14:43:33;;;;;;;5.23;4.73;;;10.10;78.70;;;;;;4994464;28;20464;-67
2021/04/15 14:46:10;;;;;;;4.70;4.30;;;9.90;81.30;;;;;;4995022;28;20508;-67
2021/04/15 14:48:37;;;;;;;8.33;5.10;;;9.90;84.90;;;;;;4994258;28;20445;-66
2021/04/15 14:51:10;;;;;;;3.97;3.60;;;9.60;86.10;;;;;;4994084;28;20481;-68
2021/04/15 14:53:37;;;;;;;4.87;4.47;;;9.30;86.70;;;;;;4994444;28;20473;-66
2021/04/15 14:56:10;;;;;;;4.20;3.90;;;9.30;85.30;;;;;;4994726;28;20820;-67
2021/04/15 14:58:37;;;;;;;5.37;4.57;;;9.20;82.90;;;;;;4994113;28;20469;-68
2021/04/15 15:01:05;;;;;;;4.23;3.93;;;9.10;92.60;;;;;;4993727;28;20513;-68
2021/04/15 15:03:36;;;;;;;3.97;3.70;;;9.10;91.40;;;;;;4997636;28;20457;-68
2021/04/15 15:06:03;;;;;;;5.17;4.30;;;9.10;91.10;;;;;;4997858;28;20445;-67
2021/04/15 15:08:36;;;;;;;4.47;3.90;;;9.30;91.90;;;;;;4997307;28;20458;-67
2021/04/15 15:11:03;;;;;;;4.73;4.30;;;9.30;91.50;;;;;;4997858;28;20480;-66
2021/04/15 15:13:36;;;;;;;4.17;3.97;;;9.50;91.00;;;;;;4997740;28;20481;-67
2021/04/15 15:16:05;;;;;;;4.63;4.23;;;9.60;86.30;;;;;;4997822;28;20796;-66
2021/04/15 15:18:32;;;;;;;5.50;4.90;;;9.80;87.10;;;;;;4997687;28;20457;-66
2021/04/15 15:21:00;;;;;;;5.27;3.80;;;9.80;84.30;;;;;;5000914;28;20538;-67
2021/04/15 15:23:35;;;;;;;5.00;4.60;;;10.00;83.80;;;;;;5000222;28;20465;-67
2021/04/15 15:26:21;;;;;;;4.70;4.40;;;10.20;83.90;;;;;;4999837;28;20442;-66
2021/04/15 15:29:00;;;;;;;4.70;4.40;;;10.30;83.90;;;;;;5002319;28;20924;-66
2021/04/15 15:31:31;;;;;;;4.87;4.57;;;10.40;81.60;;;;;;5001053;28;20482;-66
2021/04/15 15:33:57;;;;;;;3.83;3.53;;;10.50;79.60;;;;;;5000938;28;20786;-66
2021/04/15 15:36:28;;;;;;;4.63;4.27;;;10.40;76.60;;;;;;5001261;28;20458;-68
2021/04/15 15:38:56;;;;;;;4.10;3.90;;;10.30;78.50;;;;;;5000245;28;20442;-66
2021/04/15 15:41:47;;;;;;;6.07;4.47;;;10.30;79.50;;;;;;4999703;28;20842;-66
2021/04/15 15:44:45;;;;;;;4.20;3.90;;;10.30;79.10;;;;;;4996840;28;20497;-66
2021/04/15 15:47:14;;;;;;;4.43;4.13;;;10.00;76.40;;;;;;5000335;28;20442;-67
2021/04/15 15:49:41;;;;;;;4.93;4.33;;;10.10;78.30;;;;;;4999231;28;20450;-67
2021/04/15 15:52:12;;;;;;;4.87;4.37;;;9.70;78.30;;;;;;4999408;28;20474;-67
2021/04/15 15:54:47;;;;;;;4.40;4.10;;;10.10;78.80;;;;;;4999330;28;20479;-68
2021/04/15 15:57:25;;;;;;;4.27;3.97;;;10.40;77.80;;;;;;4998726;28;20445;-68
2021/04/15 16:00:08;;;;;;;4.27;3.97;;;10.40;73.70;;;;;;4998244;28;20473;-68
2021/04/15 16:02:39;;;;;;;4.30;3.20;;;10.40;71.40;;;;;;4997608;28;20514;-68
2021/04/15 16:05:17;;;;;;;4.43;4.13;;;10.60;71.40;;;;;;4996353;28;20913;-66
2021/04/15 16:07:47;;;;;;;3.73;3.43;;;10.70;71.70;;;;;;4996471;28;20438;-66
2021/04/15 16:10:17;;;;;;;4.13;3.73;;;10.60;68.70;;;;;;4996834;28;20441;-68
2021/04/15 16:12:45;;;;;;;4.10;3.70;;;10.60;70.60;;;;;;4995918;28;20458;-66
2021/04/15 16:15:31;;;;;;;5.10;3.07;;;10.60;71.20;;;;;;4998211;28;20465;-67
2021/04/15 16:18:01;;;;;;;4.87;3.70;;;10.50;67.50;;;;;;5000738;28;20446;-67
2021/04/15 16:20:27;;;;;;;4.07;3.37;;;10.40;67.80;;;;;;5000897;28;20504;-68
2021/04/15 16:22:53;;;;;;;3.33;3.03;;;10.20;68.00;;;;;;4999663;28;20937;-67
2021/04/15 16:25:21;;;;;;;2.70;2.50;;;10.10;67.00;;;;;;4999157;28;20480;-67
2021/04/15 16:27:47;;;;;;;3.03;2.83;;;9.90;66.50;;;;;;4999307;28;20829;-66
2021/04/15 16:30:21;;;;;;;3.20;3.00;;;9.90;67.10;;;;;;4999739;28;20937;-66
2021/04/15 16:32:47;;;;;;;3.00;2.80;;;9.80;65.50;;;;;;4999315;28;20924;-68
2021/04/15 16:35:15;;;;;;;3.00;2.73;;;9.70;64.50;;;;;;4999402;28;20457;-68
2021/04/15 16:37:42;;;;;;;2.87;2.67;;;9.50;63.70;;;;;;4998620;28;20647;-68
2021/04/15 16:40:12;;;;;;;2.20;2.00;;;9.30;63.50;;;;;;4999241;28;20504;-68
2021/04/15 16:42:39;;;;;;;2.30;2.13;;;9.10;61.80;;;;;;4997223;28;20474;-68
2021/04/15 16:45:11;;;;;;;3.00;2.80;;;9.10;60.60;;;;;;4996294;28;20454;-68
2021/04/15 16:47:37;;;;;;;3.10;2.47;;;9.10;60.50;;;;;;4995831;28;20529;-68
2021/04/15 16:50:06;;;;;;;2.60;2.40;;;9.10;61.30;;;;;;4995711;28;20525;-68
2021/04/15 16:52:32;;;;;;;2.80;2.60;;;9.10;61.40;;;;;;4995315;28;20541;-68
2021/04/15 16:54:58;;;;;;;2.40;2.30;;;9.20;61.60;;;;;;4995936;28;20461;-68
2021/04/15 16:57:25;;;;;;;3.13;2.83;;;9.30;63.90;;;;;;4996140;28;20460;-68
2021/04/15 16:59:52;;;;;;;2.60;2.40;;;9.20;61.50;;;;;;4996869;28;21070;-68
2021/04/15 17:02:18;;;;;;;2.77;2.53;;;9.30;66.60;;;;;;4995556;28;20493;-67
2021/04/15 17:04:45;;;;;;;4.20;2.83;;;9.20;63.10;;;;;;4995368;28;20462;-68
2021/04/15 17:07:11;;;;;;;2.87;2.53;;;9.20;63.30;;;;;;4995585;28;20536;-68
2021/04/15 17:09:38;;;;;;;3.97;3.67;;;9.00;65.10;;;;;;4995940;28;20882;-67
2021/04/15 17:12:06;;;;;;;6.07;3.13;;;8.90;66.00;;;;;;4995916;28;20473;-67
2021/04/15 17:14:34;;;;;;;3.13;2.93;;;8.70;67.00;;;;;;4995471;28;20481;-67
2021/04/15 17:17:03;;;;;;;3.50;3.20;;;8.80;67.50;;;;;;4995793;28;20454;-67
2021/04/15 17:19:29;;;;;;;3.20;2.97;;;8.70;68.40;;;;;;4995732;28;20549;-67
2021/04/15 17:21:56;;;;;;;3.27;2.97;;;8.70;69.70;;;;;;4995809;28;20474;-68
2021/04/15 17:24:23;;;;;;;3.07;2.87;;;8.60;70.40;;;;;;4994617;28;20913;-68
2021/04/15 17:26:49;;;;;;;3.20;2.90;;;8.60;71.10;;;;;;4995622;28;20453;-67
2021/04/15 17:29:15;;;;;;;3.57;3.20;;;8.50;71.40;;;;;;4995186;28;20453;-68
2021/04/15 17:31:42;;;;;;;3.30;2.83;;;8.50;70.40;;;;;;4995055;28;20477;-68
2021/04/15 17:34:11;;;;;;;4.90;3.20;;;8.50;89.60;;;;;;4995469;28;20453;-70